sensor_id;sensor_type;location;lat;lon;timestamp;pressure;altitude;pressure_sealevel;temperature;humidity
45071;BME280;30836;48.906;9.140;2023-05-21T00:00:56;982.36;;;24.86;44.37
45071;BME280;30836;48.906;9.140;2023-05-21T00:01:56;982.34;;;24.88;44.21
45071;BME280;30836;48.906;9.140;2023-05-21T00:02:56;982.34;;;24.92;44.25
45071;BME280;30836;48.906;9.140;2023-05-21T00:03:57;982.32;;;24.93;44.20
45071;BME280;30836;48.906;9.140;2023-05-21T00:04:57;982.36;;;24.90;44.53
45071;BME280;30836;48.906;9.140;2023-05-21T00:05:58;982.32;;;24.85;44.35
45071;BME280;30836;48.906;9.140;2023-05-21T00:06:58;982.32;;;24.84;44.51
45071;BME280;30836;48.906;9.140;2023-05-21T00:07:59;982.32;;;24.86;44.32
45071;BME280;30836;48.906;9.140;2023-05-21T00:08:59;982.34;;;24.86;44.46
45071;BME280;30836;48.906;9.140;2023-05-21T00:09:59;982.38;;;24.79;44.68
45071;BME280;30836;48.906;9.140;2023-05-21T00:11:00;982.34;;;24.71;44.91
45071;BME280;30836;48.906;9.140;2023-05-21T00:12:00;982.32;;;24.62;45.15
45071;BME280;30836;48.906;9.140;2023-05-21T00:13:01;982.34;;;24.54;45.22
45071;BME280;30836;48.906;9.140;2023-05-21T00:14:01;982.30;;;24.41;45.96
45071;BME280;30836;48.906;9.140;2023-05-21T00:15:02;982.32;;;24.17;46.58
45071;BME280;30836;48.906;9.140;2023-05-21T00:16:03;982.32;;;24.00;46.39
45071;BME280;30836;48.906;9.140;2023-05-21T00:17:03;982.30;;;23.99;46.36
45071;BME280;30836;48.906;9.140;2023-05-21T00:18:04;982.30;;;23.93;46.71
45071;BME280;30836;48.906;9.140;2023-05-21T00:19:05;982.30;;;23.86;46.71
45071;BME280;30836;48.906;9.140;2023-05-21T00:20:05;982.32;;;23.83;46.77
45071;BME280;30836;48.906;9.140;2023-05-21T00:21:06;982.34;;;23.79;46.95
45071;BME280;30836;48.906;9.140;2023-05-21T00:22:07;982.30;;;23.79;46.65
45071;BME280;30836;48.906;9.140;2023-05-21T00:23:07;982.32;;;23.83;46.78
45071;BME280;30836;48.906;9.140;2023-05-21T00:24:07;982.28;;;23.85;46.72
45071;BME280;30836;48.906;9.140;2023-05-21T00:25:08;982.28;;;23.85;46.59
45071;BME280;30836;48.906;9.140;2023-05-21T00:26:10;982.28;;;23.83;46.92
45071;BME280;30836;48.906;9.140;2023-05-21T00:27:13;982.24;;;23.82;46.85
45071;BME280;30836;48.906;9.140;2023-05-21T00:28:14;982.22;;;23.85;46.54
45071;BME280;30836;48.906;9.140;2023-05-21T00:29:14;982.22;;;23.84;46.82
45071;BME280;30836;48.906;9.140;2023-05-21T00:30:14;982.22;;;23.78;47.02
45071;BME280;30836;48.906;9.140;2023-05-21T00:31:15;982.20;;;23.72;47.40
45071;BME280;30836;48.906;9.140;2023-05-21T00:32:16;982.20;;;23.69;47.15
45071;BME280;30836;48.906;9.140;2023-05-21T00:33:16;982.18;;;23.73;46.94
45071;BME280;30836;48.906;9.140;2023-05-21T00:34:16;982.18;;;23.80;46.50
45071;BME280;30836;48.906;9.140;2023-05-21T00:35:17;982.18;;;23.90;46.44
45071;BME280;30836;48.906;9.140;2023-05-21T00:36:17;982.20;;;23.91;46.69
45071;BME280;30836;48.906;9.140;2023-05-21T00:37:18;982.18;;;23.90;46.53
45071;BME280;30836;48.906;9.140;2023-05-21T00:38:18;982.18;;;23.89;46.71
45071;BME280;30836;48.906;9.140;2023-05-21T00:39:18;982.20;;;23.91;46.42
45071;BME280;30836;48.906;9.140;2023-05-21T00:40:19;982.18;;;24.02;46.10
45071;BME280;30836;48.906;9.140;2023-05-21T00:41:20;982.18;;;24.10;46.03
45071;BME280;30836;48.906;9.140;2023-05-21T00:42:20;982.18;;;24.16;45.85
45071;BME280;30836;48.906;9.140;2023-05-21T00:43:21;982.16;;;24.22;45.80
45071;BME280;30836;48.906;9.140;2023-05-21T00:44:21;982.16;;;24.26;45.66
45071;BME280;30836;48.906;9.140;2023-05-21T00:45:22;982.16;;;24.31;45.57
45071;BME280;30836;48.906;9.140;2023-05-21T00:46:22;982.14;;;24.36;45.44
45071;BME280;30836;48.906;9.140;2023-05-21T00:47:23;982.14;;;24.37;45.58
45071;BME280;30836;48.906;9.140;2023-05-21T00:48:24;982.12;;;24.33;45.71
45071;BME280;30836;48.906;9.140;2023-05-21T00:49:25;982.12;;;24.27;45.83
45071;BME280;30836;48.906;9.140;2023-05-21T00:50:25;982.04;;;24.20;45.96
45071;BME280;30836;48.906;9.140;2023-05-21T00:51:25;982.04;;;24.12;45.99
45071;BME280;30836;48.906;9.140;2023-05-21T00:51:36;982.12;;;24.02;45.96
45071;BME280;30836;48.906;9.140;2023-05-21T00:52:36;982.00;;;24.03;46.12
45071;BME280;30836;48.906;9.140;2023-05-21T00:53:37;982.04;;;24.00;46.23
45071;BME280;30836;48.906;9.140;2023-05-21T00:54:38;982.04;;;23.94;46.49
45071;BME280;30836;48.906;9.140;2023-05-21T00:55:38;982.02;;;23.87;46.55
45071;BME280;30836;48.906;9.140;2023-05-21T00:56:39;982.04;;;23.81;46.60
45071;BME280;30836;48.906;9.140;2023-05-21T00:57:41;982.00;;;23.78;46.60
45071;BME280;30836;48.906;9.140;2023-05-21T00:58:41;981.98;;;23.74;46.89
45071;BME280;30836;48.906;9.140;2023-05-21T00:59:42;982.00;;;23.70;46.80
45071;BME280;30836;48.906;9.140;2023-05-21T01:00:43;982.00;;;23.68;46.91
45071;BME280;30836;48.906;9.140;2023-05-21T01:01:45;981.98;;;23.68;46.89
45071;BME280;30836;48.906;9.140;2023-05-21T01:02:45;981.96;;;23.70;46.82
45071;BME280;30836;48.906;9.140;2023-05-21T01:03:46;981.96;;;23.71;46.83
45071;BME280;30836;48.906;9.140;2023-05-21T01:04:46;981.94;;;23.71;46.88
45071;BME280;30836;48.906;9.140;2023-05-21T01:05:48;981.94;;;23.71;46.88
45071;BME280;30836;48.906;9.140;2023-05-21T01:06:50;981.94;;;23.72;46.75
45071;BME280;30836;48.906;9.140;2023-05-21T01:07:50;981.92;;;23.73;46.79
45071;BME280;30836;48.906;9.140;2023-05-21T01:08:51;981.94;;;23.72;46.88
45071;BME280;30836;48.906;9.140;2023-05-21T01:09:52;981.92;;;23.72;46.84
45071;BME280;30836;48.906;9.140;2023-05-21T01:10:52;981.92;;;23.71;46.89
45071;BME280;30836;48.906;9.140;2023-05-21T01:11:54;981.94;;;23.70;46.99
45071;BME280;30836;48.906;9.140;2023-05-21T01:12:56;981.96;;;23.68;47.02
45071;BME280;30836;48.906;9.140;2023-05-21T01:13:57;981.96;;;23.65;47.12
45071;BME280;30836;48.906;9.140;2023-05-21T01:14:58;981.96;;;23.61;47.11
45071;BME280;30836;48.906;9.140;2023-05-21T01:16:03;981.94;;;23.55;47.27
45071;BME280;30836;48.906;9.140;2023-05-21T01:17:04;981.90;;;23.50;47.42
45071;BME280;30836;48.906;9.140;2023-05-21T01:18:05;981.92;;;23.46;47.58
45071;BME280;30836;48.906;9.140;2023-05-21T01:19:06;981.90;;;23.43;47.64
45071;BME280;30836;48.906;9.140;2023-05-21T01:20:10;981.90;;;23.42;47.46
45071;BME280;30836;48.906;9.140;2023-05-21T01:21:11;981.90;;;23.43;47.56
45071;BME280;30836;48.906;9.140;2023-05-21T01:22:13;981.92;;;23.42;47.44
45071;BME280;30836;48.906;9.140;2023-05-21T01:23:16;981.90;;;23.42;47.64
45071;BME280;30836;48.906;9.140;2023-05-21T01:24:18;981.92;;;23.41;47.61
45071;BME280;30836;48.906;9.140;2023-05-21T01:25:18;981.92;;;23.40;47.58
45071;BME280;30836;48.906;9.140;2023-05-21T01:26:19;981.92;;;23.40;47.59
45071;BME280;30836;48.906;9.140;2023-05-21T01:27:19;981.90;;;23.40;47.57
45071;BME280;30836;48.906;9.140;2023-05-21T01:28:20;981.90;;;23.36;47.91
45071;BME280;30836;48.906;9.140;2023-05-21T01:29:20;981.88;;;23.29;47.92
45071;BME280;30836;48.906;9.140;2023-05-21T01:30:21;981.88;;;23.25;47.97
45071;BME280;30836;48.906;9.140;2023-05-21T01:31:26;981.84;;;23.22;48.10
45071;BME280;30836;48.906;9.140;2023-05-21T01:32:36;981.86;;;23.17;48.19
45071;BME280;30836;48.906;9.140;2023-05-21T01:33:47;981.88;;;23.13;48.28
45071;BME280;30836;48.906;9.140;2023-05-21T01:35:01;981.84;;;23.08;48.36
45071;BME280;30836;48.906;9.140;2023-05-21T01:36:03;981.86;;;23.03;48.57
45071;BME280;30836;48.906;9.140;2023-05-21T01:38:28;981.88;;;22.96;48.57
45071;BME280;30836;48.906;9.140;2023-05-21T01:39:36;981.86;;;22.91;48.95
45071;BME280;30836;48.906;9.140;2023-05-21T01:40:40;981.88;;;22.83;49.26
45071;BME280;30836;48.906;9.140;2023-05-21T01:41:46;981.86;;;22.80;48.89
45071;BME280;30836;48.906;9.140;2023-05-21T01:42:48;981.88;;;22.83;48.95
45071;BME280;30836;48.906;9.140;2023-05-21T01:43:48;981.86;;;22.89;48.49
45071;BME280;30836;48.906;9.140;2023-05-21T01:44:52;981.88;;;22.96;48.47
45071;BME280;30836;48.906;9.140;2023-05-21T01:45:55;981.86;;;23.00;48.39
45071;BME280;30836;48.906;9.140;2023-05-21T01:46:57;981.86;;;23.01;48.48
45071;BME280;30836;48.906;9.140;2023-05-21T01:47:58;981.86;;;23.00;48.57
45071;BME280;30836;48.906;9.140;2023-05-21T01:48:59;981.84;;;22.98;48.63
45071;BME280;30836;48.906;9.140;2023-05-21T01:49:10;981.84;;;22.88;48.65
45071;BME280;30836;48.906;9.140;2023-05-21T01:50:11;981.86;;;22.91;48.64
45071;BME280;30836;48.906;9.140;2023-05-21T01:51:11;981.84;;;22.93;48.62
45071;BME280;30836;48.906;9.140;2023-05-21T01:52:12;981.82;;;22.92;48.67
45071;BME280;30836;48.906;9.140;2023-05-21T01:53:13;981.82;;;22.91;48.67
45071;BME280;30836;48.906;9.140;2023-05-21T01:54:14;981.81;;;22.92;48.76
45071;BME280;30836;48.906;9.140;2023-05-21T01:55:14;981.82;;;22.90;48.77
45071;BME280;30836;48.906;9.140;2023-05-21T01:56:15;981.81;;;22.89;48.73
45071;BME280;30836;48.906;9.140;2023-05-21T01:57:16;981.79;;;22.90;48.78
45071;BME280;30836;48.906;9.140;2023-05-21T01:58:16;981.82;;;22.91;48.61
45071;BME280;30836;48.906;9.140;2023-05-21T01:59:17;981.79;;;22.93;48.57
45071;BME280;30836;48.906;9.140;2023-05-21T02:00:18;981.79;;;22.95;48.55
45071;BME280;30836;48.906;9.140;2023-05-21T02:01:20;981.77;;;22.97;48.53
45071;BME280;30836;48.906;9.140;2023-05-21T02:02:20;981.77;;;22.98;48.50
45071;BME280;30836;48.906;9.140;2023-05-21T02:03:21;981.75;;;22.99;48.49
45071;BME280;30836;48.906;9.140;2023-05-21T02:04:24;981.75;;;22.98;48.39
45071;BME280;30836;48.906;9.140;2023-05-21T02:05:24;981.75;;;22.99;48.47
45071;BME280;30836;48.906;9.140;2023-05-21T02:06:25;981.75;;;22.98;48.65
45071;BME280;30836;48.906;9.140;2023-05-21T02:07:25;981.73;;;22.96;48.59
45071;BME280;30836;48.906;9.140;2023-05-21T02:08:26;981.71;;;22.96;48.53
45071;BME280;30836;48.906;9.140;2023-05-21T02:09:26;981.69;;;22.97;48.49
45071;BME280;30836;48.906;9.140;2023-05-21T02:10:27;981.71;;;22.96;48.64
45071;BME280;30836;48.906;9.140;2023-05-21T02:11:27;981.73;;;22.93;48.73
45071;BME280;30836;48.906;9.140;2023-05-21T02:12:28;981.71;;;22.93;48.53
45071;BME280;30836;48.906;9.140;2023-05-21T02:13:28;981.71;;;22.95;48.52
45071;BME280;30836;48.906;9.140;2023-05-21T02:14:29;981.71;;;22.95;48.42
45071;BME280;30836;48.906;9.140;2023-05-21T02:15:29;981.73;;;22.97;48.38
45071;BME280;30836;48.906;9.140;2023-05-21T02:16:29;981.73;;;22.99;48.34
45071;BME280;30836;48.906;9.140;2023-05-21T02:17:30;981.73;;;23.01;48.27
45071;BME280;30836;48.906;9.140;2023-05-21T02:18:31;981.75;;;23.00;48.44
45071;BME280;30836;48.906;9.140;2023-05-21T02:19:31;981.75;;;22.99;48.37
45071;BME280;30836;48.906;9.140;2023-05-21T02:20:31;981.75;;;22.98;48.32
45071;BME280;30836;48.906;9.140;2023-05-21T02:21:32;981.73;;;22.98;48.34
45071;BME280;30836;48.906;9.140;2023-05-21T02:22:32;981.75;;;22.97;48.40
45071;BME280;30836;48.906;9.140;2023-05-21T02:23:33;981.71;;;22.95;48.56
45071;BME280;30836;48.906;9.140;2023-05-21T02:24:33;981.73;;;22.92;48.51
45071;BME280;30836;48.906;9.140;2023-05-21T02:25:34;981.77;;;22.93;48.45
45071;BME280;30836;48.906;9.140;2023-05-21T02:26:34;981.75;;;22.95;48.42
45071;BME280;30836;48.906;9.140;2023-05-21T02:27:35;981.73;;;22.96;48.38
45071;BME280;30836;48.906;9.140;2023-05-21T02:28:37;981.73;;;22.95;48.50
45071;BME280;30836;48.906;9.140;2023-05-21T02:29:37;981.71;;;22.92;48.62
45071;BME280;30836;48.906;9.140;2023-05-21T02:30:38;981.71;;;22.89;48.54
45071;BME280;30836;48.906;9.140;2023-05-21T02:31:39;981.71;;;22.87;48.63
45071;BME280;30836;48.906;9.140;2023-05-21T02:32:39;981.71;;;22.85;48.77
45071;BME280;30836;48.906;9.140;2023-05-21T02:33:41;981.69;;;22.84;48.69
45071;BME280;30836;48.906;9.140;2023-05-21T02:34:41;981.65;;;22.84;48.64
45071;BME280;30836;48.906;9.140;2023-05-21T02:35:42;981.63;;;22.84;48.59
45071;BME280;30836;48.906;9.140;2023-05-21T02:36:42;981.65;;;22.83;48.72
45071;BME280;30836;48.906;9.140;2023-05-21T02:37:42;981.63;;;22.81;48.75
45071;BME280;30836;48.906;9.140;2023-05-21T02:38:43;981.67;;;22.80;48.71
45071;BME280;30836;48.906;9.140;2023-05-21T02:39:43;981.65;;;22.77;48.91
45071;BME280;30836;48.906;9.140;2023-05-21T02:40:44;981.65;;;22.73;48.99
45071;BME280;30836;48.906;9.140;2023-05-21T02:41:45;981.69;;;22.70;49.02
45071;BME280;30836;48.906;9.140;2023-05-21T02:42:46;981.67;;;22.69;49.00
45071;BME280;30836;48.906;9.140;2023-05-21T02:43:46;981.67;;;22.70;48.91
45071;BME280;30836;48.906;9.140;2023-05-21T02:44:47;981.65;;;22.71;48.88
45071;BME280;30836;48.906;9.140;2023-05-21T02:45:47;981.65;;;22.68;49.10
45071;BME280;30836;48.906;9.140;2023-05-21T02:46:48;981.61;;;22.63;49.23
45071;BME280;30836;48.906;9.140;2023-05-21T02:47:48;981.59;;;22.61;49.21
45071;BME280;30836;48.906;9.140;2023-05-21T02:48:48;981.59;;;22.61;49.12
45071;BME280;30836;48.906;9.140;2023-05-21T02:49:49;981.63;;;22.64;49.03
45071;BME280;30836;48.906;9.140;2023-05-21T02:50:50;981.65;;;22.67;48.97
45071;BME280;30836;48.906;9.140;2023-05-21T02:51:51;981.67;;;22.71;48.86
45071;BME280;30836;48.906;9.140;2023-05-21T02:52:51;981.65;;;22.75;48.59
45071;BME280;30836;48.906;9.140;2023-05-21T02:53:52;981.69;;;22.79;48.56
45071;BME280;30836;48.906;9.140;2023-05-21T02:54:52;981.69;;;22.81;48.46
45071;BME280;30836;48.906;9.140;2023-05-21T02:55:52;981.69;;;22.82;48.52
45071;BME280;30836;48.906;9.140;2023-05-21T02:56:53;981.69;;;22.83;48.51
45071;BME280;30836;48.906;9.140;2023-05-21T02:57:53;981.71;;;22.84;48.49
45071;BME280;30836;48.906;9.140;2023-05-21T02:58:54;981.67;;;22.85;48.38
45071;BME280;30836;48.906;9.140;2023-05-21T02:59:54;981.65;;;22.86;48.40
45071;BME280;30836;48.906;9.140;2023-05-21T03:00:55;981.65;;;22.86;48.45
45071;BME280;30836;48.906;9.140;2023-05-21T03:01:55;981.67;;;22.86;48.39
45071;BME280;30836;48.906;9.140;2023-05-21T03:02:55;981.67;;;22.87;48.35
45071;BME280;30836;48.906;9.140;2023-05-21T03:03:56;981.69;;;22.86;48.50
45071;BME280;30836;48.906;9.140;2023-05-21T03:04:56;981.73;;;22.82;48.67
45071;BME280;30836;48.906;9.140;2023-05-21T03:05:57;981.71;;;22.76;48.70
45071;BME280;30836;48.906;9.140;2023-05-21T03:06:57;981.69;;;22.74;48.52
45071;BME280;30836;48.906;9.140;2023-05-21T03:07:58;981.65;;;22.74;48.50
45071;BME280;30836;48.906;9.140;2023-05-21T03:08:58;981.63;;;22.74;48.54
45071;BME280;30836;48.906;9.140;2023-05-21T03:09:59;981.63;;;22.74;48.58
45071;BME280;30836;48.906;9.140;2023-05-21T03:10:59;981.61;;;22.74;48.51
45071;BME280;30836;48.906;9.140;2023-05-21T03:12:00;981.59;;;22.75;48.50
45071;BME280;30836;48.906;9.140;2023-05-21T03:13:00;981.57;;;22.75;48.46
45071;BME280;30836;48.906;9.140;2023-05-21T03:14:01;981.57;;;22.74;48.47
45071;BME280;30836;48.906;9.140;2023-05-21T03:15:01;981.59;;;22.74;48.49
45071;BME280;30836;48.906;9.140;2023-05-21T03:16:01;981.57;;;22.74;48.45
45071;BME280;30836;48.906;9.140;2023-05-21T03:17:02;981.59;;;22.74;48.58
45071;BME280;30836;48.906;9.140;2023-05-21T03:18:03;981.59;;;22.71;48.87
45071;BME280;30836;48.906;9.140;2023-05-21T03:19:03;981.57;;;22.66;48.99
45071;BME280;30836;48.906;9.140;2023-05-21T03:20:04;981.53;;;22.63;48.98
45071;BME280;30836;48.906;9.140;2023-05-21T03:21:05;981.53;;;22.62;48.92
45071;BME280;30836;48.906;9.140;2023-05-21T03:22:06;981.51;;;22.60;49.09
45071;BME280;30836;48.906;9.140;2023-05-21T03:23:06;981.51;;;22.57;49.12
45071;BME280;30836;48.906;9.140;2023-05-21T03:24:07;981.55;;;22.54;49.11
45071;BME280;30836;48.906;9.140;2023-05-21T03:25:07;981.53;;;22.49;49.18
45071;BME280;30836;48.906;9.140;2023-05-21T03:26:09;981.53;;;22.46;49.42
45071;BME280;30836;48.906;9.140;2023-05-21T03:27:09;981.53;;;22.41;49.66
45071;BME280;30836;48.906;9.140;2023-05-21T03:28:10;981.53;;;22.33;49.95
45071;BME280;30836;48.906;9.140;2023-05-21T03:29:10;981.51;;;22.20;50.58
45071;BME280;30836;48.906;9.140;2023-05-21T03:30:11;981.51;;;22.12;50.53
45071;BME280;30836;48.906;9.140;2023-05-21T03:31:11;981.47;;;22.09;50.44
45071;BME280;30836;48.906;9.140;2023-05-21T03:32:12;981.47;;;22.07;50.51
45071;BME280;30836;48.906;9.140;2023-05-21T03:33:12;981.47;;;22.06;50.47
45071;BME280;30836;48.906;9.140;2023-05-21T03:34:13;981.47;;;22.06;50.41
45071;BME280;30836;48.906;9.140;2023-05-21T03:35:13;981.47;;;22.07;50.38
45071;BME280;30836;48.906;9.140;2023-05-21T03:36:14;981.49;;;22.08;50.29
45071;BME280;30836;48.906;9.140;2023-05-21T03:37:14;981.49;;;22.10;50.08
45071;BME280;30836;48.906;9.140;2023-05-21T03:38:14;981.53;;;22.12;49.91
45071;BME280;30836;48.906;9.140;2023-05-21T03:39:15;981.53;;;22.11;50.13
45071;BME280;30836;48.906;9.140;2023-05-21T03:40:15;981.57;;;22.11;50.02
45071;BME280;30836;48.906;9.140;2023-05-21T03:41:16;981.53;;;22.12;50.07
45071;BME280;30836;48.906;9.140;2023-05-21T03:42:16;981.49;;;22.11;50.16
45071;BME280;30836;48.906;9.140;2023-05-21T03:43:17;981.51;;;22.07;50.29
45071;BME280;30836;48.906;9.140;2023-05-21T03:44:17;981.47;;;22.04;50.37
45071;BME280;30836;48.906;9.140;2023-05-21T03:45:18;981.47;;;22.03;50.34
45071;BME280;30836;48.906;9.140;2023-05-21T03:46:18;981.45;;;22.02;50.29
45071;BME280;30836;48.906;9.140;2023-05-21T03:47:18;981.47;;;22.02;50.28
45071;BME280;30836;48.906;9.140;2023-05-21T03:48:19;981.47;;;22.03;50.33
45071;BME280;30836;48.906;9.140;2023-05-21T03:49:19;981.47;;;22.04;50.32
45071;BME280;30836;48.906;9.140;2023-05-21T03:50:20;981.47;;;22.04;50.33
45071;BME280;30836;48.906;9.140;2023-05-21T03:51:20;981.49;;;22.04;50.37
45071;BME280;30836;48.906;9.140;2023-05-21T03:52:21;981.49;;;21.98;50.75
45071;BME280;30836;48.906;9.140;2023-05-21T03:53:21;981.53;;;21.87;51.19
45071;BME280;30836;48.906;9.140;2023-05-21T03:54:22;981.55;;;21.78;51.22
45071;BME280;30836;48.906;9.140;2023-05-21T03:55:22;981.57;;;21.75;51.26
45071;BME280;30836;48.906;9.140;2023-05-21T03:56:22;981.55;;;21.70;51.44
45071;BME280;30836;48.906;9.140;2023-05-21T03:57:23;981.55;;;21.67;51.39
45071;BME280;30836;48.906;9.140;2023-05-21T03:58:23;981.57;;;21.67;51.18
45071;BME280;30836;48.906;9.140;2023-05-21T03:59:24;981.55;;;21.72;51.01
45071;BME280;30836;48.906;9.140;2023-05-21T04:00:24;981.53;;;21.78;50.88
45071;BME280;30836;48.906;9.140;2023-05-21T04:01:25;981.55;;;21.85;50.74
45071;BME280;30836;48.906;9.140;2023-05-21T04:02:25;981.55;;;21.91;50.65
45071;BME280;30836;48.906;9.140;2023-05-21T04:03:26;981.55;;;21.93;50.63
45071;BME280;30836;48.906;9.140;2023-05-21T04:04:26;981.57;;;21.90;51.07
45071;BME280;30836;48.906;9.140;2023-05-21T04:05:27;981.59;;;21.86;50.98
45071;BME280;30836;48.906;9.140;2023-05-21T04:06:27;981.61;;;21.82;51.20
45071;BME280;30836;48.906;9.140;2023-05-21T04:07:27;981.59;;;21.76;51.27
45071;BME280;30836;48.906;9.140;2023-05-21T04:08:28;981.61;;;21.72;51.29
45071;BME280;30836;48.906;9.140;2023-05-21T04:09:29;981.63;;;21.72;51.24
45071;BME280;30836;48.906;9.140;2023-05-21T04:10:29;981.63;;;21.74;51.22
45071;BME280;30836;48.906;9.140;2023-05-21T04:11:30;981.63;;;21.78;51.01
45071;BME280;30836;48.906;9.140;2023-05-21T04:12:30;981.67;;;21.80;51.02
45071;BME280;30836;48.906;9.140;2023-05-21T04:13:31;981.67;;;21.78;51.15
45071;BME280;30836;48.906;9.140;2023-05-21T04:14:31;981.67;;;21.77;51.06
45071;BME280;30836;48.906;9.140;2023-05-21T04:15:32;981.69;;;21.77;51.06
45071;BME280;30836;48.906;9.140;2023-05-21T04:16:32;981.69;;;21.78;50.91
45071;BME280;30836;48.906;9.140;2023-05-21T04:17:32;981.73;;;21.79;50.96
45071;BME280;30836;48.906;9.140;2023-05-21T04:18:33;981.77;;;21.80;50.96
45071;BME280;30836;48.906;9.140;2023-05-21T04:19:34;981.79;;;21.81;50.79
45071;BME280;30836;48.906;9.140;2023-05-21T04:20:34;981.77;;;21.83;50.69
45071;BME280;30836;48.906;9.140;2023-05-21T04:21:35;981.75;;;21.83;50.80
45071;BME280;30836;48.906;9.140;2023-05-21T04:22:35;981.79;;;21.80;50.76
45071;BME280;30836;48.906;9.140;2023-05-21T04:23:35;981.79;;;21.78;50.69
45071;BME280;30836;48.906;9.140;2023-05-21T04:24:36;981.81;;;21.75;50.79
45071;BME280;30836;48.906;9.140;2023-05-21T04:25:36;981.79;;;21.73;50.57
45071;BME280;30836;48.906;9.140;2023-05-21T04:26:37;981.81;;;21.75;50.62
45071;BME280;30836;48.906;9.140;2023-05-21T04:27:37;981.82;;;21.75;50.55
45071;BME280;30836;48.906;9.140;2023-05-21T04:28:38;981.84;;;21.74;50.61
45071;BME280;30836;48.906;9.140;2023-05-21T04:29:38;981.86;;;21.73;50.65
45071;BME280;30836;48.906;9.140;2023-05-21T04:30:39;981.88;;;21.73;50.60
45071;BME280;30836;48.906;9.140;2023-05-21T04:31:39;981.86;;;21.73;50.52
45071;BME280;30836;48.906;9.140;2023-05-21T04:32:40;981.88;;;21.76;50.33
45071;BME280;30836;48.906;9.140;2023-05-21T04:33:40;981.88;;;21.77;50.34
45071;BME280;30836;48.906;9.140;2023-05-21T04:34:40;981.90;;;21.78;50.36
45071;BME280;30836;48.906;9.140;2023-05-21T04:35:41;981.90;;;21.79;50.37
45071;BME280;30836;48.906;9.140;2023-05-21T04:36:41;981.94;;;21.80;50.20
45071;BME280;30836;48.906;9.140;2023-05-21T04:37:42;981.94;;;21.81;50.28
45071;BME280;30836;48.906;9.140;2023-05-21T04:38:42;981.94;;;21.81;50.27
45071;BME280;30836;48.906;9.140;2023-05-21T04:39:43;981.96;;;21.78;50.53
45071;BME280;30836;48.906;9.140;2023-05-21T04:40:45;981.98;;;21.74;50.54
45071;BME280;30836;48.906;9.140;2023-05-21T04:41:46;981.96;;;21.73;50.58
45071;BME280;30836;48.906;9.140;2023-05-21T04:42:46;981.98;;;21.76;50.46
45071;BME280;30836;48.906;9.140;2023-05-21T04:43:47;981.96;;;21.78;50.44
45071;BME280;30836;48.906;9.140;2023-05-21T04:44:47;981.96;;;21.81;50.33
45071;BME280;30836;48.906;9.140;2023-05-21T04:45:48;981.96;;;21.82;50.37
45071;BME280;30836;48.906;9.140;2023-05-21T04:46:48;981.98;;;21.81;50.46
45071;BME280;30836;48.906;9.140;2023-05-21T04:47:48;981.98;;;21.81;50.45
45071;BME280;30836;48.906;9.140;2023-05-21T04:48:52;981.96;;;21.81;50.43
45071;BME280;30836;48.906;9.140;2023-05-21T04:49:52;982.00;;;21.83;50.38
45071;BME280;30836;48.906;9.140;2023-05-21T04:50:53;982.00;;;21.85;50.35
45071;BME280;30836;48.906;9.140;2023-05-21T04:51:53;982.00;;;21.88;50.28
45071;BME280;30836;48.906;9.140;2023-05-21T04:52:54;982.00;;;21.92;50.21
45071;BME280;30836;48.906;9.140;2023-05-21T04:53:55;982.00;;;21.96;50.11
45071;BME280;30836;48.906;9.140;2023-05-21T04:54:56;982.00;;;22.01;50.07
45071;BME280;30836;48.906;9.140;2023-05-21T04:55:56;982.02;;;22.07;49.93
45071;BME280;30836;48.906;9.140;2023-05-21T04:56:57;982.00;;;22.12;49.79
45071;BME280;30836;48.906;9.140;2023-05-21T04:57:57;981.96;;;22.18;49.71
45071;BME280;30836;48.906;9.140;2023-05-21T04:58:57;981.98;;;22.23;49.60
45071;BME280;30836;48.906;9.140;2023-05-21T04:59:58;981.98;;;22.27;49.57
45071;BME280;30836;48.906;9.140;2023-05-21T05:00:58;981.96;;;22.31;49.51
45071;BME280;30836;48.906;9.140;2023-05-21T05:01:59;981.96;;;22.33;49.51
45071;BME280;30836;48.906;9.140;2023-05-21T05:02:59;981.96;;;22.34;49.51
45071;BME280;30836;48.906;9.140;2023-05-21T05:04:00;981.96;;;22.34;49.49
45071;BME280;30836;48.906;9.140;2023-05-21T05:05:01;981.94;;;22.34;49.63
45071;BME280;30836;48.906;9.140;2023-05-21T05:06:02;981.96;;;22.33;49.54
45071;BME280;30836;48.906;9.140;2023-05-21T05:07:02;981.96;;;22.34;49.51
45071;BME280;30836;48.906;9.140;2023-05-21T05:08:03;981.98;;;22.36;49.43
45071;BME280;30836;48.906;9.140;2023-05-21T05:09:03;982.00;;;22.37;49.40
45071;BME280;30836;48.906;9.140;2023-05-21T05:10:04;982.02;;;22.40;49.37
45071;BME280;30836;48.906;9.140;2023-05-21T05:11:05;982.02;;;22.41;49.31
45071;BME280;30836;48.906;9.140;2023-05-21T05:12:05;982.00;;;22.42;49.31
45071;BME280;30836;48.906;9.140;2023-05-21T05:13:06;982.00;;;22.44;49.19
45071;BME280;30836;48.906;9.140;2023-05-21T05:14:06;981.98;;;22.46;49.13
45071;BME280;30836;48.906;9.140;2023-05-21T05:15:07;982.00;;;22.48;49.01
45071;BME280;30836;48.906;9.140;2023-05-21T05:16:08;982.00;;;22.50;49.05
45071;BME280;30836;48.906;9.140;2023-05-21T05:17:08;981.98;;;22.50;49.04
45071;BME280;30836;48.906;9.140;2023-05-21T05:18:09;982.00;;;22.51;49.00
45071;BME280;30836;48.906;9.140;2023-05-21T05:19:09;982.00;;;22.53;48.98
45071;BME280;30836;48.906;9.140;2023-05-21T05:20:10;982.02;;;22.55;48.90
45071;BME280;30836;48.906;9.140;2023-05-21T05:21:10;982.02;;;22.55;48.88
45071;BME280;30836;48.906;9.140;2023-05-21T05:22:11;982.00;;;22.55;48.95
45071;BME280;30836;48.906;9.140;2023-05-21T05:23:11;982.00;;;22.53;48.83
45071;BME280;30836;48.906;9.140;2023-05-21T05:24:12;982.02;;;22.53;48.84
45071;BME280;30836;48.906;9.140;2023-05-21T05:25:12;982.02;;;22.52;48.92
45071;BME280;30836;48.906;9.140;2023-05-21T05:26:13;982.00;;;22.48;49.07
45071;BME280;30836;48.906;9.140;2023-05-21T05:27:13;981.98;;;22.43;49.04
45071;BME280;30836;48.906;9.140;2023-05-21T05:28:13;982.00;;;22.39;49.17
45071;BME280;30836;48.906;9.140;2023-05-21T05:29:14;981.96;;;22.37;49.15
45071;BME280;30836;48.906;9.140;2023-05-21T05:30:14;981.96;;;22.35;49.25
45071;BME280;30836;48.906;9.140;2023-05-21T05:31:15;981.96;;;22.34;49.30